createdAt,value
2019-05-16T00:02:01.291Z,9.23
2019-05-16T00:04:30.829Z,9.19
2019-05-16T00:07:00.314Z,9.07
2019-05-16T00:09:29.878Z,9.12
2019-05-16T00:11:59.555Z,9.33
2019-05-16T00:14:29.130Z,9.52
2019-05-16T00:16:58.957Z,9.38
2019-05-16T00:19:28.874Z,9.37
2019-05-16T00:21:58.554Z,9.35
2019-05-16T00:24:29.147Z,9.28
2019-05-16T00:26:58.755Z,9.37
2019-05-16T00:29:28.315Z,9.70
2019-05-16T00:31:58.079Z,9.74
2019-05-16T00:34:28.034Z,9.43
2019-05-16T00:36:58.288Z,9.50
2019-05-16T00:39:28.202Z,9.37
2019-05-16T00:41:58.388Z,9.44
2019-05-16T00:44:28.236Z,9.36
2019-05-16T00:46:58.114Z,9.43
2019-05-16T00:49:28.187Z,9.71
2019-05-16T00:51:58.501Z,9.77
2019-05-16T00:54:29.116Z,9.55
2019-05-16T00:57:00.661Z,9.54
2019-05-16T00:59:30.700Z,9.54
2019-05-16T01:02:00.200Z,9.48
2019-05-16T01:04:29.693Z,9.52
2019-05-16T01:07:01.679Z,9.49
2019-05-16T01:09:30.524Z,9.59
2019-05-16T01:12:00.052Z,9.59
2019-05-16T01:14:29.546Z,9.68
2019-05-16T01:16:59.039Z,9.75
2019-05-16T01:19:28.609Z,9.93
2019-05-16T01:21:58.962Z,10.07
2019-05-16T01:24:30.261Z,10.10
2019-05-16T01:26:59.753Z,10.13
2019-05-16T01:29:29.254Z,10.07
2019-05-16T01:31:59.112Z,10.08
2019-05-16T01:34:28.938Z,10.05
2019-05-16T01:36:58.970Z,9.92
2019-05-16T01:39:28.885Z,9.82
2019-05-16T01:41:58.807Z,9.58
2019-05-16T01:44:28.793Z,9.65
2019-05-16T01:46:58.672Z,9.59
2019-05-16T01:49:28.157Z,9.69
2019-05-16T01:51:59.014Z,9.79
2019-05-16T01:54:28.498Z,9.75
2019-05-16T01:56:59.492Z,9.84
2019-05-16T01:59:29.350Z,9.90
2019-05-16T02:02:00.924Z,9.88
2019-05-16T02:04:30.134Z,9.93
2019-05-16T02:06:59.718Z,10.22
2019-05-16T02:09:29.415Z,10.30
2019-05-16T02:11:59.072Z,10.25
2019-05-16T02:14:28.562Z,10.38
2019-05-16T02:16:58.238Z,10.31
2019-05-16T02:19:28.056Z,10.37
2019-05-16T02:21:59.633Z,10.40
2019-05-16T02:24:28.701Z,10.23
2019-05-16T02:26:58.896Z,10.15
2019-05-16T02:29:29.874Z,10.30
2019-05-16T02:32:02.018Z,10.14
2019-05-16T02:34:30.973Z,10.22
2019-05-16T02:37:18.429Z,10.17
2019-05-16T02:39:31.743Z,10.19
2019-05-16T02:42:01.402Z,10.62
2019-05-16T02:44:31.825Z,10.59
2019-05-16T02:47:02.020Z,10.46
2019-05-16T02:49:36.698Z,10.37
2019-05-16T02:52:06.400Z,10.24
2019-05-16T02:54:35.956Z,10.39
2019-05-16T02:57:05.521Z,10.69
2019-05-16T02:59:35.090Z,10.71
2019-05-16T03:02:06.292Z,10.51
2019-05-16T03:04:39.937Z,10.37
2019-05-16T03:07:07.528Z,10.45
2019-05-16T03:09:40.871Z,10.83
2019-05-16T03:12:10.706Z,10.59
2019-05-16T03:14:41.855Z,10.39
2019-05-16T03:17:13.173Z,10.37
2019-05-16T03:19:44.361Z,10.37
2019-05-16T03:22:16.845Z,10.46
2019-05-16T03:24:46.443Z,10.37
2019-05-16T03:27:15.935Z,10.43
2019-05-16T03:29:45.354Z,10.52
2019-05-16T03:32:14.824Z,10.55
2019-05-16T03:34:44.713Z,10.56
2019-05-16T03:37:15.046Z,10.39
2019-05-16T03:39:44.859Z,10.62
2019-05-16T03:42:15.547Z,10.65
2019-05-16T03:44:45.114Z,10.60
2019-05-16T03:47:14.856Z,10.64
2019-05-16T03:49:46.613Z,10.52
2019-05-16T03:52:15.928Z,10.45
2019-05-16T03:54:45.542Z,10.50
2019-05-16T03:57:15.011Z,10.48
2019-05-16T03:59:44.500Z,10.50
2019-05-16T04:02:13.946Z,10.53
2019-05-16T04:04:43.456Z,10.46
2019-05-16T04:07:13.146Z,10.66
2019-05-16T04:09:42.768Z,10.78
2019-05-16T04:12:13.637Z,10.66
2019-05-16T04:14:43.418Z,10.81
2019-05-16T04:17:12.929Z,10.70
2019-05-16T04:19:42.608Z,10.48
2019-05-16T04:22:15.627Z,10.65
2019-05-16T04:24:51.147Z,10.54
2019-05-16T04:27:21.445Z,10.71
2019-05-16T04:29:51.635Z,10.49
2019-05-16T04:32:21.287Z,10.47
2019-05-16T04:34:51.331Z,10.51
2019-05-16T04:37:22.728Z,10.56
2019-05-16T04:39:52.397Z,10.75
2019-05-16T04:42:26.707Z,10.69
2019-05-16T04:44:56.203Z,10.65
2019-05-16T04:47:25.883Z,10.86
2019-05-16T04:50:02.203Z,10.91
2019-05-16T04:52:31.785Z,10.81
2019-05-16T04:55:01.392Z,10.94
2019-05-16T04:57:31.490Z,10.66
2019-05-16T05:00:03.128Z,10.51
2019-05-16T05:02:32.758Z,10.52
2019-05-16T05:05:02.462Z,10.53
2019-05-16T05:07:32.227Z,10.65
2019-05-16T05:15:50.912Z,10.57
2019-05-16T05:18:21.420Z,10.70
2019-05-16T05:20:52.342Z,10.67
2019-05-16T05:23:23.843Z,10.71
2019-05-16T05:25:53.263Z,10.94
2019-05-16T05:28:23.154Z,11.11
2019-05-16T05:30:52.809Z,10.81
2019-05-16T05:33:22.316Z,10.69
2019-05-16T05:35:51.804Z,10.75
2019-05-16T05:38:23.005Z,10.72
2019-05-16T05:40:57.174Z,10.94
2019-05-16T05:43:43.653Z,10.89
2019-05-16T05:46:00.784Z,10.93
2019-05-16T05:48:31.082Z,11.29
2019-05-16T05:51:00.959Z,11.27
2019-05-16T05:53:30.485Z,11.33
2019-05-16T05:56:00.738Z,11.30
2019-05-16T05:58:31.023Z,11.52
2019-05-16T06:01:00.992Z,11.73
2019-05-16T06:03:32.927Z,11.96
2019-05-16T06:06:02.184Z,11.96
2019-05-16T06:08:31.856Z,11.81
2019-05-16T06:11:01.272Z,11.89
2019-05-16T06:13:31.224Z,12.10
2019-05-16T06:16:00.724Z,12.47
2019-05-16T06:18:30.703Z,12.61
2019-05-16T06:21:00.725Z,12.67
2019-05-16T06:23:31.357Z,12.55
2019-05-16T06:26:01.055Z,12.56
2019-05-16T06:28:31.050Z,12.69
2019-05-16T06:31:02.291Z,12.57
2019-05-16T06:33:33.596Z,12.29
2019-05-16T06:36:04.814Z,12.47
2019-05-16T06:38:34.485Z,12.70
2019-05-16T06:41:04.118Z,12.66
2019-05-16T06:43:33.714Z,12.50
2019-05-16T06:46:03.333Z,12.55
2019-05-16T06:48:32.956Z,12.40
2019-05-16T06:51:03.239Z,12.69
2019-05-16T06:53:32.901Z,12.79
2019-05-16T06:56:02.495Z,12.70
2019-05-16T06:58:44.739Z,12.70
2019-05-16T07:01:03.873Z,12.66
2019-05-16T07:03:33.465Z,12.73
2019-05-16T07:06:03.117Z,12.73
2019-05-16T07:08:32.927Z,12.97
2019-05-16T07:11:11.246Z,13.12
2019-05-16T07:13:52.023Z,13.06
2019-05-16T07:16:21.084Z,12.95
2019-05-16T07:18:50.808Z,12.91
2019-05-16T07:21:20.433Z,13.04
2019-05-16T07:23:51.144Z,13.02
2019-05-16T07:26:21.012Z,13.23
2019-05-16T07:28:51.633Z,13.41
2019-05-16T07:31:22.525Z,13.77
2019-05-16T07:33:53.547Z,13.78
2019-05-16T07:36:24.340Z,13.82
2019-05-16T07:38:53.967Z,13.82
2019-05-16T07:41:23.534Z,13.65
2019-05-16T07:43:53.197Z,13.68
2019-05-16T07:46:22.850Z,13.78
2019-05-16T07:48:52.480Z,13.83
2019-05-16T07:51:22.060Z,14.20
2019-05-16T07:53:53.389Z,14.65
2019-05-16T07:56:22.890Z,14.71
2019-05-16T07:58:56.078Z,14.79
2019-05-16T08:01:27.200Z,14.65
2019-05-16T08:03:56.730Z,14.53
2019-05-16T08:06:26.253Z,14.57
2019-05-16T08:08:56.002Z,15.01
2019-05-16T08:11:26.740Z,15.07
2019-05-16T08:13:56.258Z,14.97
2019-05-16T08:16:25.845Z,15.06
2019-05-16T08:18:55.420Z,14.61
2019-05-16T08:21:36.619Z,15.00
2019-05-16T08:24:14.572Z,14.65
2019-05-16T08:26:43.148Z,14.67
2019-05-16T08:29:13.489Z,14.60
2019-05-16T08:31:43.332Z,14.53
2019-05-16T08:34:13.168Z,14.50
2019-05-16T08:36:42.667Z,14.25
2019-05-16T08:39:12.279Z,14.07
2019-05-16T08:44:13.157Z,14.18
2019-05-16T08:46:42.788Z,14.23
2019-05-16T08:49:12.794Z,14.09
2019-05-16T08:51:42.854Z,13.98
2019-05-16T08:54:13.645Z,14.25
2019-05-16T08:56:44.598Z,14.12
2019-05-16T08:59:14.403Z,14.02
2019-05-16T09:04:15.278Z,14.24
2019-05-16T09:06:44.843Z,13.97
2019-05-16T09:09:34.022Z,13.88
2019-05-16T09:10:25.131Z,14.01
2019-05-16T09:10:29.683Z,13.99
2019-05-16T09:11:48.632Z,13.74
2019-05-16T09:14:17.358Z,13.79
2019-05-16T09:16:49.275Z,13.97
2019-05-16T09:19:18.545Z,14.07
2019-05-16T09:21:49.135Z,13.93
2019-05-16T09:24:18.774Z,13.84
2019-05-16T09:26:48.341Z,14.02
2019-05-16T09:29:17.948Z,13.90
2019-05-16T09:32:07.213Z,13.95
2019-05-16T09:34:18.736Z,14.15
2019-05-16T09:36:48.374Z,14.35
2019-05-16T09:39:18.230Z,14.49
2019-05-16T09:41:54.419Z,14.41
2019-05-16T09:44:19.006Z,14.64
2019-05-16T09:46:48.614Z,14.58
2019-05-16T09:49:24.285Z,14.48
2019-05-16T09:51:49.703Z,14.58
2019-05-16T09:54:19.275Z,14.74
2019-05-16T09:56:53.121Z,14.73
2019-05-16T09:59:22.669Z,14.63
2019-05-16T10:01:57.127Z,14.82
2019-05-16T10:04:27.597Z,14.79
2019-05-16T10:06:57.430Z,15.00
2019-05-16T10:09:41.354Z,15.19
2019-05-16T10:12:11.315Z,15.11
2019-05-16T10:14:37.793Z,15.10
2019-05-16T10:17:08.109Z,15.33
2019-05-16T10:19:37.847Z,15.48
2019-05-16T10:22:07.563Z,15.41
2019-05-16T10:24:37.589Z,15.48
2019-05-16T10:27:07.470Z,15.36
2019-05-16T10:29:37.791Z,15.32
2019-05-16T10:32:07.988Z,15.37
2019-05-16T10:34:39.607Z,15.48
2019-05-16T10:37:13.052Z,15.45
2019-05-16T10:39:42.879Z,15.41
2019-05-16T10:42:27.232Z,15.37
2019-05-16T10:44:48.007Z,15.42
2019-05-16T10:47:17.208Z,15.51
2019-05-16T10:49:52.405Z,15.35
2019-05-16T10:52:22.022Z,15.23
2019-05-16T10:54:57.533Z,15.07
2019-05-16T10:57:23.118Z,14.97
2019-05-16T11:00:05.352Z,14.65
2019-05-16T11:02:27.400Z,14.66
2019-05-16T11:05:20.618Z,14.55
2019-05-16T11:07:30.886Z,14.38
2019-05-16T11:10:03.380Z,13.99
2019-05-16T11:12:46.127Z,13.92
2019-05-16T11:15:03.013Z,13.61
2019-05-16T11:17:32.532Z,13.51
2019-05-16T11:20:02.103Z,13.82
2019-05-16T11:22:31.775Z,14.13
2019-05-16T11:25:01.349Z,13.54
2019-05-16T11:27:30.943Z,13.36
2019-05-16T11:30:00.374Z,13.45
2019-05-16T11:32:29.879Z,13.68
2019-05-16T11:34:59.402Z,13.73
2019-05-16T11:37:28.947Z,13.61
2019-05-16T11:39:58.541Z,13.67
2019-05-16T11:42:28.324Z,13.72
2019-05-16T11:44:58.162Z,13.59
2019-05-16T11:47:27.950Z,13.23
2019-05-16T11:49:57.516Z,13.05
2019-05-16T11:52:30.288Z,13.06
2019-05-16T11:54:59.945Z,12.96
2019-05-16T11:57:29.529Z,13.24
2019-05-16T11:59:59.083Z,13.38
2019-05-16T12:02:28.665Z,13.59
2019-05-16T12:04:58.298Z,13.73
2019-05-16T12:07:33.383Z,13.86
2019-05-16T12:09:59.449Z,13.96
2019-05-16T12:12:29.061Z,13.97
2019-05-16T12:14:58.639Z,14.06
2019-05-16T12:17:28.303Z,14.11
2019-05-16T12:19:58.579Z,14.26
2019-05-16T12:22:28.068Z,14.45
2019-05-16T12:25:00.003Z,14.50
2019-05-16T12:27:32.456Z,14.82
2019-05-16T12:30:01.114Z,15.07
2019-05-16T12:32:30.800Z,15.33
2019-05-16T12:35:00.543Z,15.56
2019-05-16T12:37:30.316Z,15.23
2019-05-16T12:39:59.860Z,15.20
2019-05-16T12:42:29.472Z,15.25
2019-05-16T12:44:59.043Z,15.16
2019-05-16T12:47:28.694Z,15.20
2019-05-16T12:49:58.377Z,15.40
2019-05-16T12:52:32.217Z,15.32
2019-05-16T12:55:01.896Z,15.41
2019-05-16T12:57:48.939Z,15.39
2019-05-16T13:00:19.230Z,15.50
2019-05-16T13:02:49.113Z,15.59
2019-05-16T13:05:18.793Z,15.52
2019-05-16T13:07:48.395Z,15.63
2019-05-16T13:10:18.688Z,15.85
2019-05-16T13:12:48.477Z,15.90
2019-05-16T13:15:20.240Z,15.82
2019-05-16T13:17:49.923Z,15.55
2019-05-16T13:20:19.555Z,15.70
2019-05-16T13:22:49.273Z,15.69
2019-05-16T13:25:20.372Z,15.65
2019-05-16T13:27:50.052Z,15.64
2019-05-16T13:30:19.705Z,15.81
2019-05-16T13:32:49.296Z,15.72
2019-05-16T13:35:29.683Z,15.82
2019-05-16T13:37:59.451Z,15.97
2019-05-16T13:40:30.813Z,15.63
2019-05-16T13:43:00.346Z,15.37
2019-05-16T13:45:30.008Z,15.55
2019-05-16T13:48:17.120Z,15.74
2019-05-16T13:50:37.335Z,15.88
2019-05-16T13:53:07.739Z,15.79
2019-05-16T13:55:38.001Z,15.86
2019-05-16T13:58:07.901Z,15.73
2019-05-16T14:00:37.829Z,15.63
2019-05-16T14:03:08.049Z,15.69
2019-05-16T14:05:40.102Z,15.47
2019-05-16T14:08:09.579Z,15.10
2019-05-16T14:11:00.734Z,15.25
2019-05-16T14:13:27.916Z,15.26
2019-05-16T14:15:58.090Z,15.12
2019-05-16T14:18:27.688Z,15.08
2019-05-16T14:20:57.471Z,14.98
2019-05-16T14:23:28.388Z,14.96
2019-05-16T14:25:59.911Z,14.83
2019-05-16T14:28:29.749Z,14.64
2019-05-16T14:30:59.204Z,14.65
2019-05-16T14:33:28.755Z,14.67
2019-05-16T14:35:58.349Z,14.46
2019-05-16T14:38:28.041Z,14.39
2019-05-16T14:40:57.682Z,14.43
2019-05-16T14:43:28.777Z,14.46
2019-05-16T14:45:58.239Z,14.54
2019-05-16T14:48:28.009Z,14.47
2019-05-16T14:50:57.888Z,14.44
2019-05-16T14:53:28.393Z,14.40
2019-05-16T14:55:58.225Z,14.31
2019-05-16T14:58:30.721Z,14.53
2019-05-16T15:00:59.241Z,14.65
2019-05-16T15:03:30.708Z,14.76
2019-05-16T15:06:00.237Z,15.02
2019-05-16T15:08:30.151Z,15.35
2019-05-16T15:10:59.676Z,15.73
2019-05-16T15:13:29.331Z,15.68
2019-05-16T15:15:58.990Z,15.79
2019-05-16T15:18:28.844Z,16.01
2019-05-16T15:20:58.364Z,16.19
2019-05-16T15:23:31.340Z,16.08
2019-05-16T15:27:08.657Z,15.93
2019-05-16T15:28:40.844Z,15.83
2019-05-16T15:31:12.075Z,15.51
2019-05-16T15:33:41.791Z,15.48
2019-05-16T15:36:11.419Z,15.33
2019-05-16T15:38:41.163Z,15.24
2019-05-16T15:41:10.780Z,15.04
2019-05-16T15:43:40.579Z,15.42
2019-05-16T15:46:10.863Z,15.48
2019-05-16T15:48:41.289Z,15.25
2019-05-16T15:51:10.952Z,15.15
2019-05-16T15:53:40.725Z,15.27
2019-05-16T15:56:10.815Z,15.06
2019-05-16T15:58:40.759Z,14.88
2019-05-16T16:01:11.634Z,15.09
2019-05-16T16:03:41.482Z,14.92
2019-05-16T16:06:11.442Z,14.91
2019-05-16T16:08:46.740Z,14.82
2019-05-16T16:11:44.638Z,15.00
2019-05-16T16:13:53.470Z,14.75
2019-05-16T16:16:23.097Z,14.67
2019-05-16T16:18:52.869Z,14.19
2019-05-16T16:21:22.347Z,14.08
2019-05-16T16:23:51.845Z,13.93
2019-05-16T16:26:21.517Z,14.03
2019-05-16T16:28:51.150Z,14.15
2019-05-16T16:31:27.474Z,14.18
2019-05-16T16:33:58.560Z,14.20
2019-05-16T16:36:28.247Z,14.02
2019-05-16T16:38:59.565Z,14.04
2019-05-16T16:41:29.240Z,14.06
2019-05-16T16:43:58.915Z,14.21
2019-05-16T16:46:46.727Z,14.28
2019-05-16T16:49:07.515Z,13.91
2019-05-16T16:51:37.670Z,13.94
2019-05-16T16:54:07.753Z,13.98
2019-05-16T16:56:37.448Z,13.99
2019-05-16T16:59:07.227Z,13.90
2019-05-16T17:01:37.335Z,13.79
2019-05-16T17:04:08.572Z,13.86
2019-05-16T17:06:38.010Z,13.69
2019-05-16T17:09:07.869Z,13.71
2019-05-16T17:11:37.464Z,13.64
2019-05-16T17:14:07.069Z,13.86
2019-05-16T17:16:37.715Z,13.80
2019-05-16T17:19:07.876Z,13.85
2019-05-16T17:21:37.393Z,13.57
2019-05-16T17:24:06.945Z,13.44
2019-05-16T17:26:37.817Z,13.38
2019-05-16T17:29:07.617Z,13.41
2019-05-16T17:31:37.159Z,13.46
2019-05-16T17:34:08.312Z,13.19
2019-05-16T17:36:38.208Z,13.03
2019-05-16T17:39:07.968Z,13.04
2019-05-16T17:41:39.206Z,12.81
2019-05-16T17:44:08.775Z,12.86
2019-05-16T17:46:40.987Z,12.73
2019-05-16T17:49:09.906Z,12.60
2019-05-16T17:51:39.548Z,12.68
2019-05-16T17:54:09.176Z,12.73
2019-05-16T17:56:40.355Z,12.82
2019-05-16T17:59:09.990Z,12.56
2019-05-16T18:01:39.631Z,12.45
2019-05-16T18:04:09.294Z,12.30
2019-05-16T18:06:40.077Z,12.24
2019-05-16T18:09:09.764Z,12.55
2019-05-16T18:11:40.365Z,12.40
2019-05-16T18:14:10.044Z,12.36
2019-05-16T18:16:52.555Z,12.26
2019-05-16T18:19:11.969Z,12.37
2019-05-16T18:21:41.477Z,12.45
2019-05-16T18:24:11.039Z,12.33
2019-05-16T18:26:40.638Z,12.50
2019-05-16T18:29:10.133Z,12.34
2019-05-16T18:31:39.624Z,12.17
2019-05-16T18:34:09.208Z,12.07
2019-05-16T18:36:39.665Z,12.12
2019-05-16T18:39:09.260Z,12.13
2019-05-16T18:41:38.903Z,12.04
2019-05-16T18:44:08.466Z,12.07
2019-05-16T18:46:39.470Z,12.11
2019-05-16T18:49:10.873Z,12.48
2019-05-16T18:51:41.377Z,12.31
2019-05-16T18:54:13.042Z,12.11
2019-05-16T18:56:47.205Z,12.12
2019-05-16T18:59:17.031Z,12.31
2019-05-16T19:01:47.809Z,12.14
2019-05-16T19:04:17.813Z,12.01
2019-05-16T19:06:49.681Z,11.89
2019-05-16T19:09:19.397Z,12.02
2019-05-16T19:11:48.896Z,12.01
2019-05-16T19:14:20.895Z,11.78
2019-05-16T19:16:50.466Z,11.88
2019-05-16T19:19:21.659Z,11.78
2019-05-16T19:21:51.304Z,11.80
2019-05-16T19:24:20.940Z,11.75
2019-05-16T19:26:50.509Z,11.64
2019-05-16T19:29:20.348Z,11.71
2019-05-16T19:31:50.680Z,11.51
2019-05-16T19:34:20.591Z,11.53
2019-05-16T19:36:50.470Z,11.36
2019-05-16T19:39:20.332Z,11.52
2019-05-16T19:41:50.012Z,11.32
2019-05-16T19:44:20.464Z,11.36
2019-05-16T19:46:51.492Z,11.33
2019-05-16T19:49:21.136Z,11.23
2019-05-16T19:51:50.788Z,11.27
2019-05-16T19:54:20.451Z,11.27
2019-05-16T19:56:50.031Z,11.08
2019-05-16T19:59:19.805Z,10.71
2019-05-16T20:01:49.312Z,10.97
2019-05-16T20:04:18.900Z,11.04
2019-05-16T20:06:48.464Z,10.83
2019-05-16T20:09:18.264Z,10.72
2019-05-16T20:11:47.840Z,10.64
2019-05-16T20:14:19.662Z,10.77
2019-05-16T20:16:48.850Z,10.81
2019-05-16T20:19:20.895Z,10.72
2019-05-16T20:21:50.594Z,10.78
2019-05-16T20:24:20.167Z,10.82
2019-05-16T20:26:49.902Z,10.67
2019-05-16T20:29:19.642Z,10.74
2019-05-16T20:31:49.314Z,10.86
2019-05-16T20:34:18.980Z,10.76
2019-05-16T20:36:48.557Z,11.05
2019-05-16T20:39:18.177Z,10.81
2019-05-16T20:41:47.702Z,11.00
2019-05-16T20:44:17.387Z,10.95
2019-05-16T20:46:49.703Z,11.12
2019-05-16T20:49:18.470Z,11.12
2019-05-16T20:51:50.000Z,10.91
2019-05-16T20:54:20.238Z,11.16
2019-05-16T20:56:49.796Z,11.22
2019-05-16T20:59:19.403Z,11.03
2019-05-16T21:01:49.205Z,11.19
2019-05-16T21:04:19.023Z,11.12
2019-05-16T21:07:00.340Z,11.09
2019-05-16T21:10:20.357Z,11.08
2019-05-16T21:12:50.026Z,11.16
2019-05-16T21:15:26.357Z,11.35
2019-05-16T21:17:56.818Z,11.29
2019-05-16T21:20:29.843Z,11.30
2019-05-16T21:22:59.299Z,11.15
2019-05-16T21:25:28.987Z,11.27
2019-05-16T21:27:58.752Z,11.37
2019-05-16T21:30:28.400Z,11.13
2019-05-16T21:32:58.095Z,11.23
2019-05-16T21:35:27.761Z,10.98
2019-05-16T21:37:57.808Z,10.99
2019-05-16T21:40:27.898Z,10.95
2019-05-16T21:42:58.802Z,10.99
2019-05-16T21:45:28.863Z,11.19
2019-05-16T21:47:58.609Z,11.27
2019-05-16T21:50:28.393Z,11.17
2019-05-16T21:52:58.180Z,11.32
2019-05-16T21:55:30.026Z,11.21
2019-05-16T21:58:00.272Z,11.17
2019-05-16T22:00:43.350Z,11.28
2019-05-16T22:03:14.720Z,11.22
2019-05-16T22:05:46.503Z,11.33
2019-05-16T22:08:16.786Z,11.12
2019-05-16T22:10:47.421Z,11.23
2019-05-16T22:13:17.424Z,11.12
2019-05-16T22:15:47.092Z,11.25
2019-05-16T22:18:16.815Z,10.99
2019-05-16T22:20:48.723Z,10.88
2019-05-16T22:23:17.881Z,10.95
2019-05-16T22:25:49.281Z,11.07
2019-05-16T22:28:19.069Z,11.31
2019-05-16T22:30:49.790Z,11.07
2019-05-16T22:33:19.360Z,10.87
2019-05-16T22:35:49.622Z,11.28
2019-05-16T22:38:19.664Z,10.88
2019-05-16T22:40:49.282Z,10.76
2019-05-16T22:43:18.840Z,10.73
2019-05-16T22:45:48.332Z,10.70
2019-05-16T22:48:18.137Z,10.69
2019-05-16T22:50:47.700Z,10.73
2019-05-16T22:53:17.413Z,10.88
2019-05-16T22:55:47.798Z,11.10
2019-05-16T22:58:17.857Z,10.94
2019-05-16T23:00:47.581Z,10.85
2019-05-16T23:03:17.527Z,10.84
2019-05-16T23:05:47.565Z,10.87
2019-05-16T23:08:17.104Z,10.73
2019-05-16T23:10:46.749Z,10.51
2019-05-16T23:13:16.987Z,10.68
2019-05-16T23:15:46.767Z,10.67
2019-05-16T23:18:17.248Z,10.87
2019-05-16T23:20:47.411Z,10.76
2019-05-16T23:23:18.021Z,10.63
2019-05-16T23:25:47.523Z,10.62
2019-05-16T23:28:17.031Z,10.64
2019-05-16T23:30:47.122Z,10.78
2019-05-16T23:33:16.620Z,10.78
2019-05-16T23:35:46.862Z,10.59
2019-05-16T23:38:20.047Z,10.61
2019-05-16T23:40:47.938Z,10.50
2019-05-16T23:43:17.519Z,10.51
2019-05-16T23:45:47.090Z,10.64
2019-05-16T23:48:16.735Z,10.75
2019-05-16T23:50:47.511Z,10.68
2019-05-16T23:53:17.305Z,10.73
2019-05-16T23:55:47.229Z,10.76
2019-05-16T23:58:16.996Z,10.63
